createdAt,value
2023-03-20T00:02:21.884Z,55.07
2023-03-20T00:04:49.645Z,54.67
2023-03-20T00:07:17.222Z,55.03
2023-03-20T00:09:45.194Z,54.65
2023-03-20T00:12:26.475Z,56.16
2023-03-20T00:14:54.489Z,54.74
2023-03-20T00:17:22.296Z,54.81
2023-03-20T00:19:50.058Z,54.97
2023-03-20T00:22:17.524Z,54.85
2023-03-20T00:24:45.004Z,54.83
2023-03-20T00:27:15.017Z,55.36
2023-03-20T00:29:43.015Z,54.92
2023-03-20T00:32:13.264Z,55.44
2023-03-20T00:34:43.764Z,55.10
2023-03-20T00:37:13.759Z,55.26
2023-03-20T00:39:41.845Z,54.96
2023-03-20T00:42:22.451Z,55.97
2023-03-20T00:44:54.172Z,55.17
2023-03-20T00:47:25.623Z,55.31
2023-03-20T00:49:54.782Z,55.21
2023-03-20T00:52:23.302Z,55.24
2023-03-20T00:54:52.635Z,55.21
2023-03-20T00:57:27.948Z,56.18
2023-03-20T01:00:06.737Z,55.91
2023-03-20T01:02:34.544Z,55.33
2023-03-20T01:05:03.856Z,55.01
2023-03-20T01:07:31.600Z,55.26
2023-03-20T01:09:59.090Z,55.13
2023-03-20T01:12:26.869Z,55.37
2023-03-20T01:14:57.513Z,55.64
2023-03-20T01:17:27.759Z,55.21
2023-03-20T01:19:55.389Z,55.09
2023-03-20T01:22:23.063Z,55.28
2023-03-20T01:24:50.613Z,55.12
2023-03-20T01:27:20.365Z,55.34
2023-03-20T01:29:48.256Z,55.22
2023-03-20T01:32:18.404Z,55.33
2023-03-20T01:34:49.229Z,54.88
2023-03-20T01:37:34.988Z,56.43
2023-03-20T01:40:04.693Z,55.16
2023-03-20T01:42:34.857Z,55.30
2023-03-20T01:45:10.138Z,55.48
2023-03-20T01:47:37.836Z,55.28
2023-03-20T01:50:24.103Z,56.60
2023-03-20T01:53:14.578Z,56.15
2023-03-20T01:55:48.896Z,54.98
2023-03-20T01:58:22.543Z,55.21
2023-03-20T02:00:50.193Z,54.88
2023-03-20T02:03:20.650Z,55.16
2023-03-20T02:06:09.194Z,54.95
2023-03-20T02:09:02.863Z,54.70
2023-03-20T02:11:38.295Z,55.08
2023-03-20T02:14:06.870Z,55.00
2023-03-20T02:16:45.851Z,54.76
2023-03-20T02:19:47.265Z,55.54
2023-03-20T02:22:32.794Z,55.40
2023-03-20T02:25:15.949Z,54.73
2023-03-20T02:28:13.395Z,55.81
2023-03-20T02:30:59.938Z,55.54
2023-03-20T02:33:46.665Z,55.00
2023-03-20T02:36:20.297Z,54.41
2023-03-20T02:39:18.792Z,55.60
2023-03-20T02:42:05.566Z,55.26
2023-03-20T02:44:47.197Z,55.49
2023-03-20T02:47:20.328Z,55.18
2023-03-20T02:50:04.423Z,55.62
2023-03-20T02:52:47.215Z,55.15
2023-03-20T02:55:57.664Z,55.68
2023-03-20T02:58:36.880Z,55.33
2023-03-20T03:01:28.350Z,55.20
2023-03-20T03:04:02.358Z,55.22
2023-03-20T03:06:34.900Z,54.82
2023-03-20T03:09:12.577Z,54.78
2023-03-20T03:11:48.472Z,54.85
2023-03-20T03:14:44.832Z,55.01
2023-03-20T03:17:18.959Z,54.67
2023-03-20T03:19:50.105Z,54.54
2023-03-20T03:22:19.014Z,54.51
2023-03-20T03:24:52.474Z,54.94
2023-03-20T03:27:33.506Z,54.67
2023-03-20T03:30:07.136Z,54.42
2023-03-20T03:32:41.124Z,54.08
2023-03-20T03:35:16.576Z,54.46
2023-03-20T03:37:59.117Z,53.81
2023-03-20T03:40:32.637Z,53.56
2023-03-20T03:43:32.192Z,53.61
2023-03-20T03:46:07.635Z,53.61
2023-03-20T03:48:44.878Z,53.29
2023-03-20T03:51:16.763Z,52.98
2023-03-20T03:54:21.228Z,52.97
2023-03-20T03:57:12.462Z,52.31
2023-03-20T03:59:44.367Z,52.21
2023-03-20T04:02:12.913Z,51.53
2023-03-20T04:04:45.589Z,51.46
2023-03-20T04:07:14.900Z,51.25
2023-03-20T04:09:42.540Z,51.01
2023-03-20T04:12:47.552Z,50.57
2023-03-20T04:15:17.065Z,50.25
2023-03-20T04:17:52.175Z,50.11
2023-03-20T04:20:20.033Z,50.12
2023-03-20T04:22:48.761Z,49.83
2023-03-20T04:25:24.253Z,49.77
2023-03-20T04:27:54.362Z,49.02
2023-03-20T04:30:48.341Z,49.27
2023-03-20T04:33:24.173Z,48.94
2023-03-20T04:36:21.671Z,48.31
2023-03-20T04:38:51.098Z,48.31
2023-03-20T04:41:21.224Z,47.36
2023-03-20T04:43:53.420Z,47.07
2023-03-20T04:46:21.181Z,46.00
2023-03-20T04:48:48.772Z,45.28
2023-03-20T04:51:17.234Z,44.02
2023-03-20T04:53:53.521Z,43.87
2023-03-20T04:56:21.177Z,42.62
2023-03-20T04:58:50.695Z,41.69
2023-03-20T05:01:22.533Z,41.40
2023-03-20T05:03:50.505Z,40.39
2023-03-20T05:06:18.316Z,39.12
2023-03-20T05:08:46.355Z,38.85
2023-03-20T05:11:14.003Z,38.47
2023-03-20T05:14:07.354Z,36.85
2023-03-20T05:16:50.085Z,36.83
2023-03-20T05:19:47.611Z,35.97
2023-03-20T05:22:27.371Z,35.89
2023-03-20T05:25:10.847Z,35.92
2023-03-20T05:28:04.883Z,35.88
2023-03-20T05:30:46.576Z,35.96
2023-03-20T05:33:33.307Z,36.16
2023-03-20T05:36:23.838Z,35.67
2023-03-20T05:38:54.491Z,35.75
2023-03-20T05:41:57.282Z,35.57
2023-03-20T05:44:43.850Z,35.54
2023-03-20T05:47:33.787Z,35.25
2023-03-20T05:50:23.678Z,35.01
2023-03-20T05:53:03.610Z,35.39
2023-03-20T05:55:52.500Z,34.84
2023-03-20T05:58:38.565Z,34.92
2023-03-20T06:01:30.331Z,34.12
2023-03-20T06:04:14.639Z,33.20
2023-03-20T06:07:07.828Z,32.94
2023-03-20T06:09:36.845Z,32.66
2023-03-20T06:12:10.000Z,32.29
2023-03-20T06:14:38.305Z,31.94
2023-03-20T06:17:08.965Z,32.24
2023-03-20T06:19:36.979Z,32.86
2023-03-20T06:22:04.949Z,32.51
2023-03-20T06:24:33.921Z,32.11
2023-03-20T06:27:01.721Z,32.12
2023-03-20T06:29:29.917Z,31.94
2023-03-20T06:32:09.052Z,31.66
2023-03-20T06:34:37.657Z,32.21
2023-03-20T06:37:05.318Z,31.82
2023-03-20T06:39:33.561Z,32.02
2023-03-20T06:42:01.610Z,31.47
2023-03-20T06:44:29.436Z,31.47
2023-03-20T06:47:13.851Z,30.73
2023-03-20T06:49:42.538Z,30.42
2023-03-20T06:52:17.383Z,29.61
2023-03-20T06:54:51.292Z,29.46
2023-03-20T06:57:21.072Z,28.70
2023-03-20T06:59:48.634Z,28.44
2023-03-20T07:02:17.043Z,27.98
2023-03-20T07:04:44.943Z,27.83
2023-03-20T07:07:12.794Z,28.04
2023-03-20T07:09:41.295Z,27.64
2023-03-20T07:12:16.966Z,27.27
2023-03-20T07:14:44.953Z,27.75
2023-03-20T07:17:18.088Z,27.37
2023-03-20T07:19:45.792Z,27.75
2023-03-20T07:22:32.136Z,26.67
2023-03-20T07:25:35.466Z,26.99
2023-03-20T07:28:10.095Z,26.91
2023-03-20T07:30:42.199Z,26.66
2023-03-20T07:33:11.008Z,26.50
2023-03-20T07:35:40.018Z,26.68
2023-03-20T07:38:09.378Z,26.54
2023-03-20T07:40:46.485Z,27.15
2023-03-20T07:43:17.212Z,26.30
2023-03-20T07:46:04.869Z,25.08
2023-03-20T07:48:36.323Z,25.41
2023-03-20T07:51:04.555Z,25.38
2023-03-20T07:53:33.430Z,25.13
2023-03-20T07:56:01.512Z,24.26
2023-03-20T07:58:29.178Z,23.18
2023-03-20T08:00:58.930Z,22.42
2023-03-20T08:04:06.682Z,21.28
2023-03-20T08:14:52.819Z,19.85
2023-03-20T08:18:53.334Z,19.29
2023-03-20T08:23:12.925Z,17.23
2023-03-20T08:27:01.351Z,17.61
2023-03-20T08:30:53.143Z,16.54
2023-03-20T08:34:09.940Z,16.17
2023-03-20T08:36:37.660Z,16.47
2023-03-20T08:39:07.069Z,15.72
2023-03-20T08:41:38.954Z,15.10
2023-03-20T08:44:06.763Z,14.66
2023-03-20T08:46:34.976Z,14.39
2023-03-20T08:49:05.630Z,14.22
2023-03-20T08:51:33.458Z,13.83
2023-03-20T08:54:03.278Z,13.45
2023-03-20T08:56:30.863Z,13.44
2023-03-20T08:58:58.544Z,13.90
2023-03-20T09:01:35.343Z,13.68
2023-03-20T09:04:06.202Z,13.94
2023-03-20T09:06:36.894Z,14.21
2023-03-20T09:09:04.577Z,14.55
2023-03-20T09:11:34.264Z,14.79
2023-03-20T09:14:01.857Z,14.79
2023-03-20T09:16:29.525Z,14.82
2023-03-20T09:18:57.357Z,14.64
2023-03-20T09:21:25.720Z,14.51
2023-03-20T09:23:53.564Z,14.99
2023-03-20T09:26:21.169Z,14.76
2023-03-20T09:28:49.273Z,14.26
2023-03-20T09:31:16.874Z,13.99
2023-03-20T09:33:44.587Z,14.11
2023-03-20T09:36:12.578Z,14.10
2023-03-20T09:38:42.191Z,13.45
2023-03-20T09:41:20.175Z,12.88
2023-03-20T09:43:53.519Z,12.74
2023-03-20T09:46:49.728Z,12.37
2023-03-20T09:49:23.449Z,11.76
2023-03-20T09:52:00.163Z,12.18
2023-03-20T09:54:53.939Z,11.54
2023-03-20T09:57:39.249Z,11.28
2023-03-20T10:00:20.285Z,11.23
2023-03-20T10:02:59.294Z,11.65
2023-03-20T10:05:45.763Z,11.31
2023-03-20T10:08:19.005Z,11.10
2023-03-20T10:10:52.191Z,10.70
2023-03-20T10:13:58.546Z,10.41
2023-03-20T10:16:46.923Z,10.68
2023-03-20T10:19:29.561Z,10.08
2023-03-20T10:22:07.759Z,10.91
2023-03-20T10:24:44.956Z,10.56
2023-03-20T10:27:27.580Z,10.47
2023-03-20T10:30:26.217Z,10.65
2023-03-20T10:41:23.107Z,10.54
2023-03-20T10:52:51.394Z,10.29
2023-03-20T10:55:24.317Z,10.22
2023-03-20T10:58:10.137Z,10.18
2023-03-20T11:00:38.449Z,9.88
2023-03-20T11:03:10.567Z,10.16
2023-03-20T11:05:39.553Z,10.29
2023-03-20T11:08:16.477Z,10.52
2023-03-20T11:10:44.593Z,10.40
2023-03-20T11:13:30.302Z,10.15
2023-03-20T11:16:09.467Z,10.41
2023-03-20T11:18:37.451Z,9.78
2023-03-20T11:21:05.502Z,9.74
2023-03-20T11:23:35.417Z,9.76
2023-03-20T11:26:08.239Z,9.68
2023-03-20T11:28:38.473Z,9.23
2023-03-20T11:31:13.786Z,9.01
2023-03-20T11:33:50.944Z,8.80
2023-03-20T11:36:31.311Z,8.79
2023-03-20T11:39:14.856Z,8.56
2023-03-20T11:41:45.345Z,9.03
2023-03-20T11:45:05.920Z,8.57
2023-03-20T11:52:34.049Z,8.37
2023-03-20T12:03:50.787Z,8.59
2023-03-20T12:07:45.139Z,8.64
2023-03-20T12:19:13.714Z,8.57
2023-03-20T12:22:49.102Z,8.69
2023-03-20T12:26:15.732Z,9.15
2023-03-20T12:34:09.477Z,9.27
2023-03-20T12:37:24.126Z,9.58
2023-03-20T12:39:59.394Z,9.58
2023-03-20T12:42:45.975Z,9.37
2023-03-20T12:45:38.385Z,9.32
2023-03-20T12:48:42.800Z,9.02
2023-03-20T12:56:29.129Z,10.09
2023-03-20T12:59:46.170Z,12.81
2023-03-20T13:02:56.909Z,15.07
2023-03-20T13:06:33.090Z,17.24
2023-03-20T13:13:29.103Z,19.11
2023-03-20T13:16:16.871Z,20.33
2023-03-20T13:19:15.124Z,22.48
2023-03-20T13:22:23.784Z,22.83
2023-03-20T13:25:01.792Z,23.43
2023-03-20T13:27:37.359Z,23.98
2023-03-20T13:30:29.175Z,24.44
2023-03-20T13:33:37.525Z,23.84
2023-03-20T13:36:25.524Z,24.99
2023-03-20T13:39:01.639Z,24.57
2023-03-20T13:41:29.768Z,24.53
2023-03-20T13:44:03.688Z,25.54
2023-03-20T13:46:36.943Z,26.42
2023-03-20T13:49:21.160Z,27.00
2023-03-20T13:52:23.617Z,26.74
2023-03-20T13:54:58.962Z,26.93
2023-03-20T13:58:25.576Z,27.03
2023-03-20T14:05:57.214Z,27.48
2023-03-20T14:09:05.126Z,28.08
2023-03-20T14:12:31.860Z,28.29
2023-03-20T14:19:21.265Z,26.34
2023-03-20T14:39:28.072Z,30.98
2023-03-20T14:43:12.959Z,30.65
2023-03-20T14:45:51.581Z,32.25
2023-03-20T14:48:33.974Z,32.31
2023-03-20T14:51:07.300Z,32.91
2023-03-20T14:53:35.138Z,32.68
2023-03-20T14:56:15.870Z,33.29
2023-03-20T14:58:49.297Z,33.75
2023-03-20T15:01:23.097Z,34.35
2023-03-20T15:04:39.596Z,35.49
2023-03-20T15:07:24.424Z,34.69
2023-03-20T15:09:56.731Z,35.52
2023-03-20T15:12:27.780Z,35.85
2023-03-20T15:15:00.932Z,36.84
2023-03-20T15:17:41.256Z,37.86
2023-03-20T15:20:19.333Z,37.77
2023-03-20T15:22:58.949Z,37.91
2023-03-20T15:25:33.849Z,38.28
2023-03-20T15:28:05.934Z,37.59
2023-03-20T15:30:38.117Z,37.83
2023-03-20T15:33:07.627Z,38.05
2023-03-20T15:35:35.314Z,37.82
2023-03-20T15:38:08.111Z,38.87
2023-03-20T15:40:50.042Z,38.92
2023-03-20T15:43:25.450Z,38.37
2023-03-20T15:46:17.296Z,38.56
2023-03-20T15:48:51.038Z,39.29
2023-03-20T15:51:21.494Z,38.58
2023-03-20T15:53:49.356Z,38.75
2023-03-20T15:56:20.340Z,39.48
2023-03-20T15:58:52.617Z,39.51
2023-03-20T16:01:23.144Z,39.72
2023-03-20T16:04:10.971Z,39.66
2023-03-20T16:06:46.593Z,41.04
2023-03-20T16:09:16.818Z,40.00
2023-03-20T16:11:47.457Z,40.71
2023-03-20T16:14:26.458Z,41.22
2023-03-20T16:16:57.351Z,41.16
2023-03-20T16:19:27.083Z,40.83
2023-03-20T16:22:01.329Z,41.95
2023-03-20T16:24:34.541Z,41.03
2023-03-20T16:27:07.277Z,41.90
2023-03-20T16:29:36.669Z,41.04
2023-03-20T16:32:07.771Z,41.79
2023-03-20T16:34:39.729Z,42.51
2023-03-20T16:37:23.470Z,41.81
2023-03-20T16:40:12.920Z,42.58
2023-03-20T16:42:40.894Z,41.36
2023-03-20T16:45:29.911Z,42.26
2023-03-20T16:48:33.149Z,42.69
2023-03-20T16:51:06.971Z,42.79
2023-03-20T17:07:09.706Z,42.49
2023-03-20T17:10:30.134Z,43.05
2023-03-20T17:12:57.895Z,42.26
2023-03-20T17:15:40.766Z,42.11
2023-03-20T17:19:01.048Z,43.92
2023-03-20T17:33:54.175Z,43.73
2023-03-20T17:37:34.218Z,43.56
2023-03-20T17:47:46.772Z,44.01
2023-03-20T17:50:57.742Z,43.94
2023-03-20T17:54:11.849Z,43.50
2023-03-20T17:56:42.337Z,43.65
2023-03-20T17:59:31.527Z,45.08
2023-03-20T18:02:45.279Z,45.22
2023-03-20T18:05:19.431Z,43.82
2023-03-20T18:07:47.161Z,43.91
2023-03-20T18:10:32.264Z,45.20
2023-03-20T18:13:00.813Z,43.81
2023-03-20T18:15:28.426Z,44.09
2023-03-20T18:17:56.072Z,43.91
2023-03-20T18:20:31.540Z,44.20
2023-03-20T18:22:59.287Z,44.48
2023-03-20T18:25:27.620Z,44.16
2023-03-20T18:27:57.017Z,44.95
2023-03-20T18:30:38.430Z,45.10
2023-03-20T18:33:06.700Z,44.67
2023-03-20T18:35:37.582Z,44.88
2023-03-20T18:38:06.693Z,44.51
2023-03-20T18:40:37.670Z,44.62
2023-03-20T18:43:07.782Z,44.54
2023-03-20T18:45:37.325Z,44.56
2023-03-20T18:48:07.781Z,44.75
2023-03-20T18:50:41.119Z,44.87
2023-03-20T18:53:12.167Z,44.75
2023-03-20T18:55:41.281Z,45.00
2023-03-20T18:58:21.431Z,45.85
2023-03-20T19:00:50.450Z,45.09
2023-03-20T19:03:18.849Z,44.48
2023-03-20T19:05:48.866Z,44.85
2023-03-20T19:08:17.510Z,44.55
2023-03-20T19:10:46.550Z,45.09
2023-03-20T19:13:18.987Z,45.16
2023-03-20T19:15:48.160Z,45.12
2023-03-20T19:18:28.049Z,45.38
2023-03-20T19:20:59.552Z,44.88
2023-03-20T19:23:31.843Z,44.83
2023-03-20T19:25:59.591Z,45.22
2023-03-20T19:28:39.220Z,45.71
2023-03-20T19:31:09.737Z,45.53
2023-03-20T19:33:39.312Z,45.26
2023-03-20T19:36:19.159Z,45.14
2023-03-20T19:38:46.946Z,44.91
2023-03-20T19:41:15.063Z,45.36
2023-03-20T19:43:52.089Z,45.44
2023-03-20T19:46:38.232Z,45.32
2023-03-20T19:49:17.354Z,45.38
2023-03-20T19:51:46.212Z,45.67
2023-03-20T19:54:13.819Z,45.55
2023-03-20T19:56:41.596Z,45.54
2023-03-20T19:59:09.143Z,45.19
2023-03-20T20:01:39.104Z,45.11
2023-03-20T20:04:06.867Z,45.36
2023-03-20T20:06:34.396Z,45.29
2023-03-20T20:09:03.179Z,45.86
2023-03-20T20:11:30.671Z,45.67
2023-03-20T20:14:06.713Z,45.47
2023-03-20T20:16:36.861Z,45.78
2023-03-20T20:19:05.088Z,45.94
2023-03-20T20:24:20.830Z,45.51
2023-03-20T20:26:55.217Z,45.91
2023-03-20T20:29:28.240Z,45.49
2023-03-20T20:31:55.845Z,44.66
2023-03-20T20:39:59.490Z,44.79
2023-03-20T20:42:27.383Z,44.81
2023-03-20T20:44:54.966Z,45.36
2023-03-20T20:47:22.615Z,45.38
2023-03-20T20:49:50.132Z,45.10
2023-03-20T20:52:18.334Z,45.42
2023-03-20T20:54:45.903Z,44.95
2023-03-20T20:57:14.430Z,45.33
2023-03-20T20:59:42.008Z,45.65
2023-03-20T21:02:11.574Z,45.03
2023-03-20T21:04:41.205Z,45.47
2023-03-20T21:07:13.186Z,45.18
2023-03-20T21:09:41.531Z,44.93
2023-03-20T21:12:10.725Z,45.22
2023-03-20T21:14:40.721Z,44.95
2023-03-20T21:17:09.860Z,44.96
2023-03-20T21:19:40.360Z,45.00
2023-03-20T21:22:11.297Z,44.94
2023-03-20T21:24:39.864Z,44.99
2023-03-20T21:27:11.630Z,44.88
2023-03-20T21:29:39.775Z,44.98
2023-03-20T21:32:09.587Z,44.66
2023-03-20T21:34:38.212Z,44.91
2023-03-20T21:38:04.035Z,44.76
2023-03-20T21:39:56.506Z,44.79
2023-03-20T21:42:23.977Z,44.87
2023-03-20T21:45:46.363Z,44.86
2023-03-20T21:51:09.703Z,44.35
2023-03-20T21:59:36.780Z,44.88
2023-03-20T22:05:18.944Z,44.93
2023-03-20T22:07:51.984Z,45.01
2023-03-20T22:11:18.186Z,44.83
2023-03-20T22:16:17.133Z,44.91
2023-03-20T22:21:52.180Z,44.64
2023-03-20T22:24:45.248Z,44.91
2023-03-20T22:33:03.587Z,45.11
2023-03-20T22:36:06.896Z,45.07
2023-03-20T22:38:52.238Z,45.22
2023-03-20T22:41:49.311Z,45.36
2023-03-20T22:44:34.043Z,45.47
2023-03-20T22:46:44.770Z,45.47
2023-03-20T22:49:13.273Z,45.58
2023-03-20T22:51:50.723Z,45.71
2023-03-20T22:54:28.441Z,45.39
2023-03-20T22:56:55.899Z,45.45
2023-03-20T22:59:23.443Z,45.98
2023-03-20T23:01:51.231Z,45.43
2023-03-20T23:04:18.845Z,45.63
2023-03-20T23:06:46.472Z,45.65
2023-03-20T23:09:15.746Z,45.93
2023-03-20T23:11:43.972Z,46.02
2023-03-20T23:14:20.557Z,45.88
2023-03-20T23:16:50.713Z,46.04
2023-03-20T23:19:18.429Z,46.13
2023-03-20T23:21:48.111Z,46.04
2023-03-20T23:24:16.953Z,46.39
2023-03-20T23:26:44.465Z,46.68
2023-03-20T23:29:11.879Z,46.27
2023-03-20T23:31:39.454Z,46.46
2023-03-20T23:34:06.891Z,46.40
2023-03-20T23:36:37.340Z,46.35
2023-03-20T23:39:06.556Z,46.61
2023-03-20T23:42:07.900Z,46.72
2023-03-20T23:44:21.920Z,46.52
2023-03-20T23:46:49.558Z,47.00
2023-03-20T23:49:17.299Z,46.48
2023-03-20T23:51:44.852Z,46.88
2023-03-20T23:54:12.855Z,47.10
2023-03-20T23:56:40.401Z,46.83
2023-03-20T23:59:20.708Z,46.99
